createdAt,value
2022-09-15T00:02:07.657Z,3.83
2022-09-15T00:05:10.329Z,4.57
2022-09-15T00:08:12.900Z,4.20
2022-09-15T00:11:15.770Z,5.35
2022-09-15T00:14:18.712Z,4.15
2022-09-15T00:17:21.664Z,4.70
2022-09-15T00:20:24.907Z,3.45
2022-09-15T00:23:27.330Z,4.82
2022-09-15T00:26:29.922Z,4.15
2022-09-15T00:29:32.442Z,5.15
2022-09-15T00:32:34.812Z,5.60
2022-09-15T00:35:37.286Z,4.15
2022-09-15T00:38:40.069Z,4.57
2022-09-15T00:41:42.548Z,3.75
2022-09-15T00:44:46.023Z,5.50
2022-09-15T00:47:48.210Z,3.00
2022-09-15T00:50:50.772Z,4.07
2022-09-15T00:53:52.929Z,3.72
2022-09-15T00:56:55.502Z,3.35
2022-09-15T00:59:58.337Z,4.38
2022-09-15T01:03:01.155Z,3.15
2022-09-15T01:06:03.706Z,4.55
2022-09-15T01:09:06.388Z,3.35
2022-09-15T01:12:09.178Z,3.95
2022-09-15T01:15:12.188Z,3.47
2022-09-15T01:18:15.017Z,4.07
2022-09-15T01:21:17.648Z,3.33
2022-09-15T01:24:19.924Z,4.50
2022-09-15T01:27:41.112Z,4.10
2022-09-15T01:30:44.607Z,4.70
2022-09-15T01:33:47.833Z,3.70
2022-09-15T01:36:50.593Z,3.85
2022-09-15T01:39:53.060Z,3.90
2022-09-15T01:42:56.209Z,3.85
2022-09-15T01:45:59.037Z,3.15
2022-09-15T01:49:01.429Z,4.63
2022-09-15T01:52:04.247Z,5.05
2022-09-15T01:55:07.073Z,5.05
2022-09-15T01:58:10.055Z,3.72
2022-09-15T02:01:12.934Z,3.85
2022-09-15T02:04:15.839Z,5.05
2022-09-15T02:07:18.196Z,3.80
2022-09-15T02:10:20.629Z,3.83
2022-09-15T02:13:24.577Z,4.15
2022-09-15T02:16:27.484Z,6.32
2022-09-15T02:19:30.735Z,4.70
2022-09-15T02:22:34.046Z,3.58
2022-09-15T02:25:36.769Z,4.88
2022-09-15T02:28:39.451Z,4.50
2022-09-15T02:31:42.273Z,3.72
2022-09-15T02:34:44.475Z,2.97
2022-09-15T02:37:47.008Z,4.43
2022-09-15T02:40:49.729Z,4.15
2022-09-15T02:43:52.881Z,3.10
2022-09-15T02:46:56.070Z,3.25
2022-09-15T02:49:58.881Z,3.63
2022-09-15T02:53:01.028Z,4.75
2022-09-15T02:56:03.651Z,4.20
2022-09-15T02:59:06.661Z,3.70
2022-09-15T03:02:09.284Z,3.97
2022-09-15T03:05:11.836Z,4.35
2022-09-15T03:08:14.529Z,4.00
2022-09-15T03:11:17.469Z,3.55
2022-09-15T03:14:19.663Z,4.28
2022-09-15T03:17:22.685Z,4.05
2022-09-15T03:20:25.364Z,3.42
2022-09-15T03:23:28.269Z,3.97
2022-09-15T03:26:30.952Z,6.45
2022-09-15T03:29:33.596Z,5.68
2022-09-15T03:32:36.773Z,6.18
2022-09-15T03:35:39.868Z,5.80
2022-09-15T03:38:42.592Z,6.80
2022-09-15T03:41:45.071Z,6.40
2022-09-15T03:44:47.213Z,6.93
2022-09-15T03:47:49.579Z,7.45
2022-09-15T03:50:52.136Z,9.25
2022-09-15T03:53:55.384Z,9.70
2022-09-15T03:56:59.135Z,29.92
2022-09-15T04:00:02.524Z,84.10
2022-09-15T04:03:06.420Z,49.97
2022-09-15T04:06:09.260Z,56.88
2022-09-15T04:09:11.893Z,48.92
2022-09-15T04:12:14.803Z,44.17
2022-09-15T04:15:17.461Z,48.58
2022-09-15T04:18:19.865Z,50.50
2022-09-15T04:21:22.788Z,38.03
2022-09-15T04:24:25.634Z,39.70
2022-09-15T04:27:28.197Z,39.83
2022-09-15T04:30:30.812Z,42.78
2022-09-15T04:33:33.487Z,39.80
2022-09-15T04:36:36.109Z,39.53
2022-09-15T04:39:39.106Z,33.60
2022-09-15T04:42:42.297Z,37.65
2022-09-15T04:45:45.157Z,31.40
2022-09-15T04:48:48.058Z,28.67
2022-09-15T04:51:50.908Z,28.42
2022-09-15T04:54:53.784Z,28.90
2022-09-15T04:57:56.930Z,26.17
2022-09-15T05:01:00.207Z,24.90
2022-09-15T05:04:02.973Z,27.08
2022-09-15T05:07:05.767Z,27.83
2022-09-15T05:10:08.297Z,27.80
2022-09-15T05:13:11.143Z,22.75
2022-09-15T05:16:14.852Z,22.85
2022-09-15T05:19:17.306Z,22.38
2022-09-15T05:22:19.868Z,21.38
2022-09-15T05:25:22.436Z,17.10
2022-09-15T05:28:25.270Z,16.52
2022-09-15T05:31:28.463Z,19.30
2022-09-15T05:34:31.214Z,15.63
2022-09-15T05:37:34.087Z,19.20
2022-09-15T05:40:37.105Z,17.80
2022-09-15T05:43:40.298Z,17.65
2022-09-15T05:46:42.783Z,14.63
2022-09-15T05:49:46.027Z,15.82
2022-09-15T05:52:48.382Z,15.73
2022-09-15T05:55:50.890Z,18.52
2022-09-15T05:58:53.806Z,14.32
2022-09-15T06:01:56.612Z,14.15
2022-09-15T06:04:59.088Z,15.20
2022-09-15T06:08:01.937Z,12.75
2022-09-15T06:11:04.825Z,13.65
2022-09-15T06:14:07.277Z,14.38
2022-09-15T06:17:10.175Z,12.32
2022-09-15T06:20:12.588Z,12.18
2022-09-15T06:23:15.480Z,12.10
2022-09-15T06:26:18.747Z,10.68
2022-09-15T06:29:21.528Z,9.85
2022-09-15T06:32:23.641Z,11.50
2022-09-15T06:35:26.522Z,12.65
2022-09-15T06:38:29.254Z,9.65
2022-09-15T06:41:47.368Z,10.73
2022-09-15T06:44:53.467Z,11.48
2022-09-15T06:48:20.307Z,12.38
2022-09-15T06:51:17.628Z,14.45
2022-09-15T06:54:20.639Z,9.45
2022-09-15T06:57:23.480Z,9.48
2022-09-15T07:00:25.916Z,10.38
2022-09-15T07:03:28.820Z,9.45
2022-09-15T07:06:31.095Z,10.88
2022-09-15T07:09:33.959Z,8.18
2022-09-15T07:12:36.718Z,9.55
2022-09-15T07:15:39.253Z,7.80
2022-09-15T07:18:43.449Z,6.65
2022-09-15T07:21:45.405Z,10.23
2022-09-15T07:24:48.007Z,9.43
2022-09-15T07:27:50.652Z,7.38
2022-09-15T07:30:53.519Z,7.75
2022-09-15T07:33:55.662Z,8.15
2022-09-15T07:36:58.202Z,8.27
2022-09-15T07:40:01.144Z,7.05
2022-09-15T07:43:04.061Z,6.13
2022-09-15T07:46:06.703Z,8.45
2022-09-15T07:49:09.550Z,7.18
2022-09-15T07:52:13.146Z,7.93
2022-09-15T07:55:16.252Z,5.88
2022-09-15T07:58:19.109Z,5.25
2022-09-15T08:01:21.626Z,5.95
2022-09-15T08:04:24.770Z,6.63
2022-09-15T08:07:27.187Z,5.20
2022-09-15T08:10:29.308Z,6.50
2022-09-15T08:13:31.399Z,5.22
2022-09-15T08:16:33.644Z,5.43
2022-09-15T08:19:36.565Z,5.20
2022-09-15T08:22:39.709Z,5.65
2022-09-15T08:25:42.388Z,5.00
2022-09-15T08:28:45.257Z,5.53
2022-09-15T08:31:48.220Z,5.20
2022-09-15T08:34:50.812Z,2.90
2022-09-15T08:37:53.565Z,3.70
2022-09-15T08:40:56.763Z,5.10
2022-09-15T08:44:00.385Z,5.63
2022-09-15T08:47:03.725Z,5.05
2022-09-15T08:50:07.140Z,4.95
2022-09-15T08:53:09.229Z,4.95
2022-09-15T08:56:11.794Z,5.05
2022-09-15T08:59:14.711Z,4.07
2022-09-15T09:02:17.513Z,4.95
2022-09-15T09:05:20.952Z,4.78
2022-09-15T09:08:23.746Z,5.95
2022-09-15T09:11:25.849Z,4.47
2022-09-15T09:14:28.308Z,5.43
2022-09-15T09:17:31.080Z,4.57
2022-09-15T09:20:33.790Z,3.60
2022-09-15T09:23:36.278Z,4.72
2022-09-15T09:26:39.016Z,4.60
2022-09-15T09:29:41.498Z,3.78
2022-09-15T09:32:44.441Z,3.35
2022-09-15T09:35:46.827Z,3.33
2022-09-15T09:38:49.656Z,3.70
2022-09-15T09:41:51.982Z,3.03
2022-09-15T09:44:54.141Z,3.50
2022-09-15T09:48:01.354Z,6.05
2022-09-15T09:51:04.726Z,4.90
2022-09-15T09:54:08.120Z,2.83
2022-09-15T09:57:11.288Z,4.85
2022-09-15T10:00:14.092Z,3.80
2022-09-15T10:03:16.616Z,2.88
2022-09-15T10:06:18.891Z,2.88
2022-09-15T10:09:21.701Z,4.22
2022-09-15T10:12:24.193Z,5.07
2022-09-15T10:15:27.360Z,3.53
2022-09-15T10:18:30.227Z,4.07
2022-09-15T10:21:32.703Z,3.50
2022-09-15T10:24:35.900Z,5.32
2022-09-15T10:27:39.003Z,4.82
2022-09-15T10:30:41.422Z,3.15
2022-09-15T10:33:44.005Z,4.88
2022-09-15T10:36:46.884Z,5.38
2022-09-15T10:39:49.946Z,5.75
2022-09-15T10:42:52.364Z,3.63
2022-09-15T10:45:54.989Z,5.50
2022-09-15T10:48:57.425Z,5.00
2022-09-15T10:52:00.317Z,3.50
2022-09-15T10:55:03.127Z,3.90
2022-09-15T10:58:05.946Z,5.20
2022-09-15T11:01:09.169Z,3.90
2022-09-15T11:04:12.097Z,3.15
2022-09-15T11:07:14.474Z,3.03
2022-09-15T11:10:17.173Z,3.13
2022-09-15T11:13:20.179Z,2.97
2022-09-15T11:16:22.934Z,3.40
2022-09-15T11:19:25.548Z,3.78
2022-09-15T11:22:28.534Z,2.90
2022-09-15T11:25:31.497Z,2.05
2022-09-15T11:28:35.791Z,4.75
2022-09-15T11:31:39.210Z,5.57
2022-09-15T11:34:42.031Z,2.80
2022-09-15T11:37:45.653Z,3.97
2022-09-15T11:40:48.830Z,2.72
2022-09-15T11:43:52.035Z,5.03
2022-09-15T11:46:54.495Z,3.53
2022-09-15T11:49:56.661Z,2.10
2022-09-15T11:52:59.201Z,4.13
2022-09-15T11:56:02.425Z,1.52
2022-09-15T11:59:06.304Z,3.00
2022-09-15T12:02:08.880Z,4.95
2022-09-15T12:05:11.487Z,2.90
2022-09-15T12:08:13.697Z,3.72
2022-09-15T12:11:16.252Z,2.97
2022-09-15T12:14:18.874Z,3.65
2022-09-15T12:17:21.498Z,2.78
2022-09-15T12:20:24.114Z,2.78
2022-09-15T12:23:27.027Z,3.38
2022-09-15T12:26:29.466Z,3.47
2022-09-15T12:29:31.969Z,2.25
2022-09-15T12:32:34.395Z,3.95
2022-09-15T12:35:37.302Z,2.92
2022-09-15T12:38:40.211Z,3.90
2022-09-15T12:41:43.140Z,6.63
2022-09-15T12:44:45.992Z,3.30
2022-09-15T12:47:48.556Z,3.58
2022-09-15T12:50:51.165Z,2.85
2022-09-15T12:53:53.597Z,2.92
2022-09-15T12:56:56.252Z,3.17
2022-09-15T12:59:59.060Z,2.10
2022-09-15T13:03:01.691Z,3.38
2022-09-15T13:06:04.065Z,1.88
2022-09-15T13:09:06.736Z,2.15
2022-09-15T13:12:09.605Z,3.63
2022-09-15T13:15:12.954Z,2.53
2022-09-15T13:18:16.509Z,3.88
2022-09-15T13:21:19.740Z,2.50
2022-09-15T13:24:23.006Z,2.92
2022-09-15T13:27:25.582Z,5.80
2022-09-15T13:30:28.195Z,2.42
2022-09-15T13:40:16.356Z,2.60
2022-09-15T13:43:19.131Z,3.05
2022-09-15T13:46:21.452Z,3.20
2022-09-15T13:49:24.816Z,3.53
2022-09-15T13:52:26.933Z,4.55
2022-09-15T13:55:29.475Z,5.72
2022-09-15T14:01:54.381Z,4.32
2022-09-15T14:04:57.072Z,6.18
2022-09-15T14:08:01.256Z,3.55
2022-09-15T14:11:05.053Z,4.95
2022-09-15T14:14:07.612Z,2.30
2022-09-15T14:17:10.444Z,3.90
2022-09-15T14:20:13.300Z,3.47
2022-09-15T14:23:16.520Z,2.25
2022-09-15T14:26:19.185Z,2.75
2022-09-15T14:29:21.788Z,4.43
2022-09-15T14:32:23.875Z,3.63
2022-09-15T14:35:26.771Z,5.47
2022-09-15T14:38:29.852Z,3.28
2022-09-15T14:41:32.690Z,4.15
2022-09-15T14:47:58.017Z,3.88
2022-09-15T14:51:00.821Z,5.15
2022-09-15T14:54:03.632Z,3.63
2022-09-15T14:57:06.391Z,3.50
2022-09-15T15:00:09.231Z,5.88
2022-09-15T15:03:14.767Z,3.45
2022-09-15T15:06:35.629Z,5.75
2022-09-15T15:09:37.845Z,5.38
2022-09-15T15:12:40.398Z,3.95
2022-09-15T15:15:43.614Z,4.78
2022-09-15T15:18:46.720Z,3.95
2022-09-15T15:21:49.510Z,3.17
2022-09-15T15:24:52.109Z,3.75
2022-09-15T15:27:54.658Z,4.95
2022-09-15T15:30:56.778Z,4.40
2022-09-15T15:33:59.345Z,4.55
2022-09-15T15:37:02.697Z,4.55
2022-09-15T15:40:06.048Z,4.65
2022-09-15T15:43:09.519Z,2.13
2022-09-15T15:46:12.137Z,3.70
2022-09-15T15:49:15.096Z,4.15
2022-09-15T15:52:17.923Z,2.53
2022-09-15T15:55:20.348Z,3.40
2022-09-15T15:58:23.332Z,1.90
2022-09-15T16:01:26.741Z,2.53
2022-09-15T16:04:29.442Z,4.68
2022-09-15T16:07:33.414Z,5.90
2022-09-15T16:10:35.755Z,3.47
2022-09-15T16:13:39.046Z,4.32
2022-09-15T16:16:41.900Z,7.22
2022-09-15T16:19:45.409Z,22.10
2022-09-15T16:22:48.292Z,16.55
2022-09-15T16:25:51.150Z,13.73
2022-09-15T16:28:53.888Z,16.33
2022-09-15T16:31:57.022Z,14.45
2022-09-15T16:34:59.773Z,13.30
2022-09-15T16:38:02.556Z,16.00
2022-09-15T16:41:05.573Z,10.38
2022-09-15T16:44:08.782Z,11.93
2022-09-15T16:47:11.699Z,8.93
2022-09-15T16:50:14.520Z,11.65
2022-09-15T16:53:17.748Z,11.90
2022-09-15T16:56:20.178Z,8.02
2022-09-15T16:59:22.697Z,7.50
2022-09-15T17:02:25.392Z,8.38
2022-09-15T17:05:28.259Z,7.65
2022-09-15T17:08:31.123Z,5.55
2022-09-15T17:11:34.086Z,6.45
2022-09-15T17:14:36.768Z,6.28
2022-09-15T17:17:38.851Z,5.95
2022-09-15T17:20:41.304Z,5.80
2022-09-15T17:23:43.999Z,6.55
2022-09-15T17:26:46.761Z,5.40
2022-09-15T17:29:49.429Z,5.72
2022-09-15T17:32:51.894Z,6.07
2022-09-15T17:35:54.649Z,5.60
2022-09-15T17:38:56.825Z,4.07
2022-09-15T17:41:59.016Z,5.40
2022-09-15T17:45:01.920Z,6.22
2022-09-15T17:48:04.332Z,6.18
2022-09-15T17:51:07.223Z,6.18
2022-09-15T17:54:10.082Z,6.55
2022-09-15T17:57:13.122Z,5.80
2022-09-15T18:00:15.932Z,6.65
2022-09-15T18:03:18.911Z,5.20
2022-09-15T18:06:22.144Z,4.97
2022-09-15T18:09:24.900Z,5.82
2022-09-15T18:12:28.138Z,5.93
2022-09-15T18:15:31.930Z,5.28
2022-09-15T18:18:34.808Z,6.10
2022-09-15T18:21:37.306Z,6.00
2022-09-15T18:24:40.508Z,4.45
2022-09-15T18:27:42.973Z,3.65
2022-09-15T18:30:45.482Z,5.47
2022-09-15T18:33:48.373Z,4.90
2022-09-15T18:36:51.519Z,7.25
2022-09-15T18:39:54.333Z,4.10
2022-09-15T18:42:56.965Z,4.95
2022-09-15T18:45:59.810Z,3.08
2022-09-15T18:49:03.026Z,4.07
2022-09-15T18:52:05.586Z,3.40
2022-09-15T18:55:08.029Z,2.83
2022-09-15T18:58:10.840Z,5.28
2022-09-15T19:01:13.074Z,3.40
2022-09-15T19:04:16.057Z,2.75
2022-09-15T19:07:18.740Z,2.85
2022-09-15T19:10:21.633Z,3.45
2022-09-15T19:13:24.519Z,2.70
2022-09-15T19:16:46.808Z,2.17
2022-09-15T19:19:50.142Z,4.10
2022-09-15T19:22:52.864Z,4.45
2022-09-15T19:25:56.233Z,2.42
2022-09-15T19:28:59.681Z,3.13
2022-09-15T19:32:01.778Z,3.22
2022-09-15T19:35:04.259Z,3.00
2022-09-15T19:38:07.426Z,4.25
2022-09-15T19:41:09.849Z,2.40
2022-09-15T19:44:12.578Z,2.78
2022-09-15T19:47:15.463Z,3.35
2022-09-15T19:50:18.433Z,2.65
2022-09-15T19:53:21.603Z,2.97
2022-09-15T19:56:23.934Z,2.22
2022-09-15T19:59:31.040Z,2.10
2022-09-15T20:02:34.463Z,2.63
2022-09-15T20:05:37.154Z,3.55
2022-09-15T20:08:39.925Z,2.53
2022-09-15T20:11:43.072Z,1.90
2022-09-15T20:14:45.853Z,2.33
2022-09-15T20:17:48.651Z,2.20
2022-09-15T20:20:51.095Z,4.47
2022-09-15T20:23:54.264Z,2.45
2022-09-15T20:26:56.983Z,3.22
2022-09-15T20:30:00.128Z,1.92
2022-09-15T20:33:02.529Z,2.67
2022-09-15T20:36:05.045Z,1.42
2022-09-15T20:39:07.494Z,2.55
2022-09-15T20:42:10.461Z,3.17
2022-09-15T20:45:13.252Z,1.83
2022-09-15T20:48:16.232Z,2.75
2022-09-15T20:51:18.743Z,2.22
2022-09-15T20:54:21.215Z,1.60
2022-09-15T20:57:24.347Z,3.03
2022-09-15T21:00:30.642Z,3.05
2022-09-15T21:03:36.576Z,2.35
2022-09-15T21:06:39.766Z,4.18
2022-09-15T21:09:42.597Z,3.28
2022-09-15T21:12:45.256Z,2.80
2022-09-15T21:15:47.786Z,2.15
2022-09-15T21:18:50.030Z,2.45
2022-09-15T21:21:52.962Z,2.25
2022-09-15T21:24:55.773Z,2.00
2022-09-15T21:27:57.976Z,2.10
2022-09-15T21:31:00.556Z,1.80
2022-09-15T21:34:03.411Z,1.65
2022-09-15T21:37:05.879Z,2.03
2022-09-15T21:40:08.865Z,1.50
2022-09-15T21:43:11.738Z,1.52
2022-09-15T21:46:14.766Z,2.60
2022-09-15T21:49:18.130Z,2.45
2022-09-15T21:52:20.689Z,1.65
2022-09-15T21:55:22.828Z,1.42
2022-09-15T21:58:26.153Z,2.90
2022-09-15T22:01:29.171Z,1.85
2022-09-15T22:04:32.174Z,1.40
2022-09-15T22:07:34.871Z,1.95
2022-09-15T22:10:37.257Z,2.60
2022-09-15T22:14:04.243Z,1.60
2022-09-15T22:17:07.103Z,1.30
2022-09-15T22:20:09.874Z,1.90
2022-09-15T22:23:12.537Z,3.22
2022-09-15T22:26:15.219Z,1.40
2022-09-15T22:29:18.212Z,2.92
2022-09-15T22:32:21.150Z,3.05
2022-09-15T22:35:23.295Z,1.42
2022-09-15T22:38:26.242Z,3.60
2022-09-15T22:41:29.148Z,1.67
2022-09-15T22:44:31.269Z,3.17
2022-09-15T22:47:33.800Z,1.65
2022-09-15T22:50:36.916Z,1.52
2022-09-15T22:53:40.532Z,1.65
2022-09-15T22:56:43.908Z,3.08
2022-09-15T22:59:46.763Z,2.17
2022-09-15T23:02:48.934Z,2.63
2022-09-15T23:05:51.801Z,2.63
2022-09-15T23:08:54.694Z,2.58
2022-09-15T23:11:57.308Z,1.70
2022-09-15T23:15:00.236Z,4.05
2022-09-15T23:18:03.525Z,1.55
2022-09-15T23:21:06.497Z,2.95
2022-09-15T23:24:08.848Z,3.15
2022-09-15T23:27:11.386Z,2.40
2022-09-15T23:30:13.755Z,3.67
2022-09-15T23:33:16.302Z,3.20
2022-09-15T23:36:18.453Z,4.18
2022-09-15T23:39:21.384Z,2.35
2022-09-15T23:42:24.153Z,5.25
2022-09-15T23:45:27.031Z,3.00
2022-09-15T23:48:29.829Z,2.33
2022-09-15T23:51:32.225Z,2.13
2022-09-15T23:54:34.987Z,2.55
2022-09-15T23:57:37.601Z,2.65
